sensor_id;sensor_type;location;lat;lon;timestamp;pressure;altitude;pressure_sealevel;temperature
77789;BMP280;70537;44.384;0.512;2023-06-26T00:00:20;101924.06;;;22.58
77789;BMP280;70537;44.384;0.512;2023-06-26T00:02:46;101921.41;;;22.52
77789;BMP280;70537;44.384;0.512;2023-06-26T00:05:12;101930.63;;;22.47
77789;BMP280;70537;44.384;0.512;2023-06-26T00:07:38;101923.19;;;22.42
77789;BMP280;70537;44.384;0.512;2023-06-26T00:10:05;101928.66;;;22.34
77789;BMP280;70537;44.384;0.512;2023-06-26T00:12:31;101934.00;;;22.32
77789;BMP280;70537;44.384;0.512;2023-06-26T00:14:57;101938.38;;;22.28
77789;BMP280;70537;44.384;0.512;2023-06-26T00:17:23;101935.03;;;22.29
77789;BMP280;70537;44.384;0.512;2023-06-26T00:19:50;101936.44;;;22.23
77789;BMP280;70537;44.384;0.512;2023-06-26T00:22:16;101937.22;;;22.23
77789;BMP280;70537;44.384;0.512;2023-06-26T00:24:42;101932.00;;;22.19
77789;BMP280;70537;44.384;0.512;2023-06-26T00:27:10;101939.75;;;22.21
77789;BMP280;70537;44.384;0.512;2023-06-26T00:29:35;101937.31;;;22.17
77789;BMP280;70537;44.384;0.512;2023-06-26T00:32:01;101937.81;;;22.08
77789;BMP280;70537;44.384;0.512;2023-06-26T00:34:27;101942.16;;;22.04
77789;BMP280;70537;44.384;0.512;2023-06-26T00:36:53;101942.81;;;21.97
77789;BMP280;70537;44.384;0.512;2023-06-26T00:39:18;101945.59;;;21.97
77789;BMP280;70537;44.384;0.512;2023-06-26T00:41:44;101946.22;;;21.89
77789;BMP280;70537;44.384;0.512;2023-06-26T00:44:10;101951.47;;;21.80
77789;BMP280;70537;44.384;0.512;2023-06-26T00:46:36;101947.53;;;21.75
77789;BMP280;70537;44.384;0.512;2023-06-26T00:49:03;101943.50;;;21.63
77789;BMP280;70537;44.384;0.512;2023-06-26T00:51:29;101948.91;;;21.55
77789;BMP280;70537;44.384;0.512;2023-06-26T00:53:56;101943.38;;;21.42
77789;BMP280;70537;44.384;0.512;2023-06-26T00:56:22;101947.44;;;21.41
77789;BMP280;70537;44.384;0.512;2023-06-26T00:58:48;101942.31;;;21.32
77789;BMP280;70537;44.384;0.512;2023-06-26T01:01:14;101945.19;;;21.26
77789;BMP280;70537;44.384;0.512;2023-06-26T01:03:43;101939.75;;;21.20
77789;BMP280;70537;44.384;0.512;2023-06-26T01:06:11;101937.31;;;21.17
77789;BMP280;70537;44.384;0.512;2023-06-26T01:08:39;101941.13;;;21.14
77789;BMP280;70537;44.384;0.512;2023-06-26T01:11:05;101955.44;;;21.12
77789;BMP280;70537;44.384;0.512;2023-06-26T01:13:31;101948.75;;;21.08
77789;BMP280;70537;44.384;0.512;2023-06-26T01:15:58;101952.19;;;21.14
77789;BMP280;70537;44.384;0.512;2023-06-26T01:18:25;101942.19;;;21.11
77789;BMP280;70537;44.384;0.512;2023-06-26T01:20:51;101946.88;;;21.16
77789;BMP280;70537;44.384;0.512;2023-06-26T01:23:22;101949.63;;;21.16
77789;BMP280;70537;44.384;0.512;2023-06-26T01:28:34;101941.56;;;21.18
77789;BMP280;70537;44.384;0.512;2023-06-26T01:31:02;101949.41;;;21.14
77789;BMP280;70537;44.384;0.512;2023-06-26T01:33:28;101945.88;;;21.13
77789;BMP280;70537;44.384;0.512;2023-06-26T01:35:54;101943.91;;;21.14
77789;BMP280;70537;44.384;0.512;2023-06-26T01:38:20;101957.91;;;21.16
77789;BMP280;70537;44.384;0.512;2023-06-26T01:40:48;101953.13;;;21.16
77789;BMP280;70537;44.384;0.512;2023-06-26T01:43:19;101950.38;;;21.16
77789;BMP280;70537;44.384;0.512;2023-06-26T01:45:50;101957.38;;;21.17
77789;BMP280;70537;44.384;0.512;2023-06-26T01:48:20;101956.13;;;21.18
77789;BMP280;70537;44.384;0.512;2023-06-26T01:50:49;101956.63;;;21.17
77789;BMP280;70537;44.384;0.512;2023-06-26T01:53:18;101952.06;;;21.19
77789;BMP280;70537;44.384;0.512;2023-06-26T01:55:51;101959.91;;;21.15
77789;BMP280;70537;44.384;0.512;2023-06-26T01:58:19;101960.09;;;21.04
77789;BMP280;70537;44.384;0.512;2023-06-26T02:00:47;101952.06;;;21.06
77789;BMP280;70537;44.384;0.512;2023-06-26T02:03:13;101952.25;;;21.08
77789;BMP280;70537;44.384;0.512;2023-06-26T02:05:38;101946.31;;;21.04
77789;BMP280;70537;44.384;0.512;2023-06-26T02:08:04;101952.06;;;21.06
77789;BMP280;70537;44.384;0.512;2023-06-26T02:10:30;101939.31;;;21.03
77789;BMP280;70537;44.384;0.512;2023-06-26T02:12:55;101951.09;;;21.04
77789;BMP280;70537;44.384;0.512;2023-06-26T02:15:21;101960.09;;;21.04
77789;BMP280;70537;44.384;0.512;2023-06-26T02:17:47;101955.44;;;20.99
77789;BMP280;70537;44.384;0.512;2023-06-26T02:20:14;101956.91;;;21.00
77789;BMP280;70537;44.384;0.512;2023-06-26T02:22:41;101957.97;;;20.97
77789;BMP280;70537;44.384;0.512;2023-06-26T02:25:06;101959.78;;;20.94
77789;BMP280;70537;44.384;0.512;2023-06-26T02:27:32;101961.78;;;20.94
77789;BMP280;70537;44.384;0.512;2023-06-26T02:29:57;101960.50;;;20.95
77789;BMP280;70537;44.384;0.512;2023-06-26T02:32:23;101964.25;;;20.98
77789;BMP280;70537;44.384;0.512;2023-06-26T02:34:48;101961.25;;;20.95
77789;BMP280;70537;44.384;0.512;2023-06-26T02:37:14;101959.78;;;20.94
77789;BMP280;70537;44.384;0.512;2023-06-26T02:39:41;101964.75;;;20.96
77789;BMP280;70537;44.384;0.512;2023-06-26T02:42:06;101952.22;;;20.95
77789;BMP280;70537;44.384;0.512;2023-06-26T02:44:32;101960.50;;;20.95
77789;BMP280;70537;44.384;0.512;2023-06-26T02:46:58;101943.22;;;20.94
77789;BMP280;70537;44.384;0.512;2023-06-26T02:49:23;101953.50;;;20.94
77789;BMP280;70537;44.384;0.512;2023-06-26T02:51:49;101945.53;;;20.90
77789;BMP280;70537;44.384;0.512;2023-06-26T02:54:14;101945.53;;;20.90
77789;BMP280;70537;44.384;0.512;2023-06-26T02:56:40;101942.47;;;20.94
77789;BMP280;70537;44.384;0.512;2023-06-26T02:59:05;101952.22;;;20.95
77789;BMP280;70537;44.384;0.512;2023-06-26T03:01:31;101948.94;;;20.97
77789;BMP280;70537;44.384;0.512;2023-06-26T03:03:56;101946.72;;;20.95
77789;BMP280;70537;44.384;0.512;2023-06-26T03:06:21;101940.97;;;20.93
77789;BMP280;70537;44.384;0.512;2023-06-26T03:08:47;101942.22;;;20.92
77789;BMP280;70537;44.384;0.512;2023-06-26T03:11:12;101941.94;;;20.95
77789;BMP280;70537;44.384;0.512;2023-06-26T03:13:38;101944.47;;;20.93
77789;BMP280;70537;44.384;0.512;2023-06-26T03:16:04;101944.19;;;20.97
77789;BMP280;70537;44.384;0.512;2023-06-26T03:18:29;101936.94;;;20.94
77789;BMP280;70537;44.384;0.512;2023-06-26T03:20:56;101939.41;;;20.98
77789;BMP280;70537;44.384;0.512;2023-06-26T03:23:22;101944.69;;;20.95
77789;BMP280;70537;44.384;0.512;2023-06-26T03:25:48;101945.44;;;20.96
77789;BMP280;70537;44.384;0.512;2023-06-26T03:28:14;101929.94;;;20.93
77789;BMP280;70537;44.384;0.512;2023-06-26T03:30:39;101940.31;;;20.87
77789;BMP280;70537;44.384;0.512;2023-06-26T03:33:05;101931.00;;;20.90
77789;BMP280;70537;44.384;0.512;2023-06-26T03:35:30;101941.50;;;20.91
77789;BMP280;70537;44.384;0.512;2023-06-26T03:37:57;101942.78;;;20.90
77789;BMP280;70537;44.384;0.512;2023-06-26T03:40:23;101946.00;;;20.94
77789;BMP280;70537;44.384;0.512;2023-06-26T03:42:48;101941.28;;;20.89
77789;BMP280;70537;44.384;0.512;2023-06-26T03:45:14;101940.00;;;20.90
77789;BMP280;70537;44.384;0.512;2023-06-26T03:47:39;101943.75;;;20.93
77789;BMP280;70537;44.384;0.512;2023-06-26T03:50:05;101943.31;;;20.89
77789;BMP280;70537;44.384;0.512;2023-06-26T03:52:31;101944.56;;;20.88
77789;BMP280;70537;44.384;0.512;2023-06-26T03:55:00;101952.84;;;20.88
77789;BMP280;70537;44.384;0.512;2023-06-26T03:57:25;101950.41;;;20.84
77789;BMP280;70537;44.384;0.512;2023-06-26T03:59:51;101948.59;;;20.87
77789;BMP280;70537;44.384;0.512;2023-06-26T04:02:17;101953.16;;;20.84
77789;BMP280;70537;44.384;0.512;2023-06-26T04:04:43;101952.09;;;20.87
77789;BMP280;70537;44.384;0.512;2023-06-26T04:07:08;101959.88;;;20.89
77789;BMP280;70537;44.384;0.512;2023-06-26T04:09:34;101964.84;;;20.90
77789;BMP280;70537;44.384;0.512;2023-06-26T04:11:59;101962.63;;;20.89
77789;BMP280;70537;44.384;0.512;2023-06-26T04:14:25;101955.94;;;20.84
77789;BMP280;70537;44.384;0.512;2023-06-26T04:16:50;101958.34;;;20.88
77789;BMP280;70537;44.384;0.512;2023-06-26T04:19:16;101954.41;;;20.83
77789;BMP280;70537;44.384;0.512;2023-06-26T04:21:41;101956.13;;;20.86
77789;BMP280;70537;44.384;0.512;2023-06-26T04:24:07;101953.59;;;20.88
77789;BMP280;70537;44.384;0.512;2023-06-26T04:26:33;101957.84;;;20.89
77789;BMP280;70537;44.384;0.512;2023-06-26T04:28:59;101965.44;;;20.83
77789;BMP280;70537;44.384;0.512;2023-06-26T04:31:25;101958.69;;;20.84
77789;BMP280;70537;44.384;0.512;2023-06-26T04:33:51;101957.19;;;20.83
77789;BMP280;70537;44.384;0.512;2023-06-26T04:36:20;101958.09;;;20.73
77789;BMP280;70537;44.384;0.512;2023-06-26T04:38:45;101967.56;;;20.77
77789;BMP280;70537;44.384;0.512;2023-06-26T04:41:11;101954.38;;;20.70
77789;BMP280;70537;44.384;0.512;2023-06-26T04:43:36;101955.22;;;20.65
77789;BMP280;70537;44.384;0.512;2023-06-26T04:46:02;101967.72;;;20.66
77789;BMP280;70537;44.384;0.512;2023-06-26T04:48:28;101968.16;;;20.70
77789;BMP280;70537;44.384;0.512;2023-06-26T04:50:54;101960.19;;;20.66
77789;BMP280;70537;44.384;0.512;2023-06-26T04:53:22;101969.66;;;20.71
77789;BMP280;70537;44.384;0.512;2023-06-26T04:55:52;101966.16;;;20.70
77789;BMP280;70537;44.384;0.512;2023-06-26T04:58:18;101970.88;;;20.76
77789;BMP280;70537;44.384;0.512;2023-06-26T05:00:44;101973.09;;;20.77
77789;BMP280;70537;44.384;0.512;2023-06-26T05:03:11;101971.50;;;20.82
77789;BMP280;70537;44.384;0.512;2023-06-26T05:05:37;101976.94;;;20.87
77789;BMP280;70537;44.384;0.512;2023-06-26T05:08:29;101977.69;;;20.88
77789;BMP280;70537;44.384;0.512;2023-06-26T05:10:54;101976.00;;;20.85
77789;BMP280;70537;44.384;0.512;2023-06-26T05:13:26;101981.81;;;20.81
77789;BMP280;70537;44.384;0.512;2023-06-26T05:15:52;101984.28;;;20.85
77789;BMP280;70537;44.384;0.512;2023-06-26T05:18:18;101971.09;;;20.78
77789;BMP280;70537;44.384;0.512;2023-06-26T05:20:44;101977.25;;;20.84
77789;BMP280;70537;44.384;0.512;2023-06-26T05:23:13;101979.25;;;20.83
77789;BMP280;70537;44.384;0.512;2023-06-26T05:25:39;101980.53;;;20.82
77789;BMP280;70537;44.384;0.512;2023-06-26T05:28:05;101980.09;;;20.78
77789;BMP280;70537;44.384;0.512;2023-06-26T05:30:32;101993.28;;;20.85
77789;BMP280;70537;44.384;0.512;2023-06-26T05:33:01;101989.78;;;20.85
77789;BMP280;70537;44.384;0.512;2023-06-26T05:35:29;101983.97;;;20.88
77789;BMP280;70537;44.384;0.512;2023-06-26T05:37:55;101986.94;;;20.90
77789;BMP280;70537;44.384;0.512;2023-06-26T05:40:21;101992.25;;;20.88
77789;BMP280;70537;44.384;0.512;2023-06-26T05:42:47;101986.50;;;20.86
77789;BMP280;70537;44.384;0.512;2023-06-26T05:45:13;101991.88;;;20.79
77789;BMP280;70537;44.384;0.512;2023-06-26T05:47:38;102000.88;;;20.79
77789;BMP280;70537;44.384;0.512;2023-06-26T05:50:04;101993.19;;;20.78
77789;BMP280;70537;44.384;0.512;2023-06-26T05:52:30;101989.56;;;20.83
77789;BMP280;70537;44.384;0.512;2023-06-26T05:54:56;102004.22;;;20.78
77789;BMP280;70537;44.384;0.512;2023-06-26T05:57:27;102003.88;;;20.81
77789;BMP280;70537;44.384;0.512;2023-06-26T05:59:53;102006.50;;;20.92
77789;BMP280;70537;44.384;0.512;2023-06-26T06:02:19;101998.09;;;20.98
77789;BMP280;70537;44.384;0.512;2023-06-26T06:04:44;102003.84;;;21.00
77789;BMP280;70537;44.384;0.512;2023-06-26T06:07:10;102009.59;;;21.15
77789;BMP280;70537;44.384;0.512;2023-06-26T06:09:35;102011.94;;;21.11
77789;BMP280;70537;44.384;0.512;2023-06-26T06:12:01;102013.09;;;21.03
77789;BMP280;70537;44.384;0.512;2023-06-26T06:14:29;102016.00;;;21.10
77789;BMP280;70537;44.384;0.512;2023-06-26T06:16:55;102017.56;;;21.06
77789;BMP280;70537;44.384;0.512;2023-06-26T06:19:22;102013.44;;;21.12
77789;BMP280;70537;44.384;0.512;2023-06-26T06:21:47;102021.47;;;20.97
77789;BMP280;70537;44.384;0.512;2023-06-26T06:24:13;102012.25;;;20.94
77789;BMP280;70537;44.384;0.512;2023-06-26T06:26:39;102017.03;;;21.07
77789;BMP280;70537;44.384;0.512;2023-06-26T06:29:04;102019.41;;;21.16
77789;BMP280;70537;44.384;0.512;2023-06-26T06:31:31;102026.63;;;21.19
77789;BMP280;70537;44.384;0.512;2023-06-26T06:33:56;102016.75;;;21.24
77789;BMP280;70537;44.384;0.512;2023-06-26T06:36:22;102021.44;;;21.29
77789;BMP280;70537;44.384;0.512;2023-06-26T06:38:47;102031.97;;;21.31
77789;BMP280;70537;44.384;0.512;2023-06-26T06:41:13;102022.53;;;21.39
77789;BMP280;70537;44.384;0.512;2023-06-26T06:43:39;102034.22;;;21.45
77789;BMP280;70537;44.384;0.512;2023-06-26T06:46:05;102031.56;;;21.53
77789;BMP280;70537;44.384;0.512;2023-06-26T06:48:31;102030.00;;;21.58
77789;BMP280;70537;44.384;0.512;2023-06-26T06:50:57;102041.47;;;21.62
77789;BMP280;70537;44.384;0.512;2023-06-26T06:53:22;102043.41;;;21.67
77789;BMP280;70537;44.384;0.512;2023-06-26T06:55:49;102046.03;;;21.59
77789;BMP280;70537;44.384;0.512;2023-06-26T06:58:14;102053.78;;;21.61
77789;BMP280;70537;44.384;0.512;2023-06-26T07:00:42;102047.75;;;21.62
77789;BMP280;70537;44.384;0.512;2023-06-26T07:03:08;102046.38;;;21.56
77789;BMP280;70537;44.384;0.512;2023-06-26T07:05:33;102053.09;;;21.60
77789;BMP280;70537;44.384;0.512;2023-06-26T07:07:59;102053.38;;;21.57
77789;BMP280;70537;44.384;0.512;2023-06-26T07:10:24;102059.69;;;21.70
77789;BMP280;70537;44.384;0.512;2023-06-26T07:12:50;102051.69;;;21.80
77789;BMP280;70537;44.384;0.512;2023-06-26T07:15:16;102051.59;;;21.86
77789;BMP280;70537;44.384;0.512;2023-06-26T07:17:42;102048.81;;;21.86
77789;BMP280;70537;44.384;0.512;2023-06-26T07:20:07;102055.00;;;21.92
77789;BMP280;70537;44.384;0.512;2023-06-26T07:22:37;102052.63;;;22.09
77789;BMP280;70537;44.384;0.512;2023-06-26T07:25:02;102053.53;;;22.04
77789;BMP280;70537;44.384;0.512;2023-06-26T07:27:29;102052.53;;;22.28
77789;BMP280;70537;44.384;0.512;2023-06-26T07:29:54;102051.13;;;22.35
77789;BMP280;70537;44.384;0.512;2023-06-26T07:32:20;102051.53;;;22.39
77789;BMP280;70537;44.384;0.512;2023-06-26T07:34:45;102047.59;;;22.48
77789;BMP280;70537;44.384;0.512;2023-06-26T07:37:11;102053.50;;;22.52
77789;BMP280;70537;44.384;0.512;2023-06-26T07:39:36;102052.00;;;22.64
77789;BMP280;70537;44.384;0.512;2023-06-26T07:42:02;102051.53;;;22.73
77789;BMP280;70537;44.384;0.512;2023-06-26T07:44:27;102052.06;;;22.71
77789;BMP280;70537;44.384;0.512;2023-06-26T07:46:53;102047.59;;;22.68
77789;BMP280;70537;44.384;0.512;2023-06-26T07:49:18;102049.75;;;22.62
77789;BMP280;70537;44.384;0.512;2023-06-26T07:51:44;102046.53;;;22.71
77789;BMP280;70537;44.384;0.512;2023-06-26T07:54:09;102053.66;;;22.80
77789;BMP280;70537;44.384;0.512;2023-06-26T07:56:58;102052.34;;;22.81
77789;BMP280;70537;44.384;0.512;2023-06-26T07:59:25;102049.03;;;22.83
77789;BMP280;70537;44.384;0.512;2023-06-26T08:01:52;102049.25;;;22.85
77789;BMP280;70537;44.384;0.512;2023-06-26T08:04:19;102042.59;;;23.01
77789;BMP280;70537;44.384;0.512;2023-06-26T08:06:49;102052.44;;;23.10
77789;BMP280;70537;44.384;0.512;2023-06-26T08:09:16;102050.91;;;23.30
77789;BMP280;70537;44.384;0.512;2023-06-26T08:11:42;102052.03;;;23.27
77789;BMP280;70537;44.384;0.512;2023-06-26T08:14:08;102046.81;;;23.23
77789;BMP280;70537;44.384;0.512;2023-06-26T08:16:33;102048.25;;;23.45
77789;BMP280;70537;44.384;0.512;2023-06-26T08:18:59;102052.41;;;23.59
77789;BMP280;70537;44.384;0.512;2023-06-26T08:21:24;102046.69;;;23.57
77789;BMP280;70537;44.384;0.512;2023-06-26T08:23:50;102053.75;;;23.66
77789;BMP280;70537;44.384;0.512;2023-06-26T08:26:16;102042.53;;;23.71
77789;BMP280;70537;44.384;0.512;2023-06-26T08:28:41;102041.53;;;23.97
77789;BMP280;70537;44.384;0.512;2023-06-26T08:31:07;102040.84;;;24.12
77789;BMP280;70537;44.384;0.512;2023-06-26T08:33:33;102034.69;;;23.98
77789;BMP280;70537;44.384;0.512;2023-06-26T08:35:58;102026.38;;;24.06
77789;BMP280;70537;44.384;0.512;2023-06-26T08:38:23;102033.44;;;24.07
77789;BMP280;70537;44.384;0.512;2023-06-26T08:40:49;102031.28;;;24.21
77789;BMP280;70537;44.384;0.512;2023-06-26T08:43:14;102034.25;;;24.31
77789;BMP280;70537;44.384;0.512;2023-06-26T08:45:40;102026.31;;;24.50
77789;BMP280;70537;44.384;0.512;2023-06-26T08:48:09;102029.53;;;24.69
77789;BMP280;70537;44.384;0.512;2023-06-26T08:50:35;102023.75;;;24.52
77789;BMP280;70537;44.384;0.512;2023-06-26T08:55:41;102025.63;;;24.95
77789;BMP280;70537;44.384;0.512;2023-06-26T08:58:07;102024.72;;;24.93
77789;BMP280;70537;44.384;0.512;2023-06-26T09:00:33;102026.06;;;25.55
77789;BMP280;70537;44.384;0.512;2023-06-26T09:02:59;102018.50;;;25.88
77789;BMP280;70537;44.384;0.512;2023-06-26T09:05:26;102013.69;;;25.89
77789;BMP280;70537;44.384;0.512;2023-06-26T09:07:57;102020.84;;;25.67
77789;BMP280;70537;44.384;0.512;2023-06-26T09:10:23;102013.59;;;25.71
77789;BMP280;70537;44.384;0.512;2023-06-26T09:12:49;102019.88;;;25.09
77789;BMP280;70537;44.384;0.512;2023-06-26T09:15:16;102011.88;;;25.13
77789;BMP280;70537;44.384;0.512;2023-06-26T09:17:44;102022.41;;;25.37
77789;BMP280;70537;44.384;0.512;2023-06-26T09:20:10;102013.16;;;25.90
77789;BMP280;70537;44.384;0.512;2023-06-26T09:22:37;102019.28;;;26.21
77789;BMP280;70537;44.384;0.512;2023-06-26T09:25:05;102013.72;;;26.21
77789;BMP280;70537;44.384;0.512;2023-06-26T09:27:31;102009.16;;;26.08
77789;BMP280;70537;44.384;0.512;2023-06-26T09:29:57;102013.56;;;26.11
77789;BMP280;70537;44.384;0.512;2023-06-26T09:32:27;102006.41;;;26.01
77789;BMP280;70537;44.384;0.512;2023-06-26T09:34:55;102010.31;;;26.30
77789;BMP280;70537;44.384;0.512;2023-06-26T09:37:21;102014.56;;;26.31
77789;BMP280;70537;44.384;0.512;2023-06-26T09:39:47;102010.94;;;26.46
77789;BMP280;70537;44.384;0.512;2023-06-26T09:42:14;102012.19;;;26.53
77789;BMP280;70537;44.384;0.512;2023-06-26T09:44:46;102013.44;;;26.34
77789;BMP280;70537;44.384;0.512;2023-06-26T09:47:12;102005.97;;;26.62
77789;BMP280;70537;44.384;0.512;2023-06-26T09:49:41;102015.13;;;26.80
77789;BMP280;70537;44.384;0.512;2023-06-26T09:52:08;102012.34;;;26.55
77789;BMP280;70537;44.384;0.512;2023-06-26T09:54:33;102005.94;;;26.70
77789;BMP280;70537;44.384;0.512;2023-06-26T09:57:09;102019.16;;;26.61
77789;BMP280;70537;44.384;0.512;2023-06-26T09:59:35;102003.19;;;26.87
77789;BMP280;70537;44.384;0.512;2023-06-26T10:02:01;102016.16;;;27.09
77789;BMP280;70537;44.384;0.512;2023-06-26T10:04:27;102018.66;;;27.15
77789;BMP280;70537;44.384;0.512;2023-06-26T10:06:54;102023.59;;;27.41
77789;BMP280;70537;44.384;0.512;2023-06-26T10:09:21;102018.19;;;27.26
77789;BMP280;70537;44.384;0.512;2023-06-26T10:14:35;102013.41;;;27.54
77789;BMP280;70537;44.384;0.512;2023-06-26T10:17:04;102015.38;;;27.88
77789;BMP280;70537;44.384;0.512;2023-06-26T10:19:33;102003.28;;;28.12
77789;BMP280;70537;44.384;0.512;2023-06-26T10:21:58;102007.97;;;28.10
77789;BMP280;70537;44.384;0.512;2023-06-26T10:24:28;101999.41;;;27.71
77789;BMP280;70537;44.384;0.512;2023-06-26T10:27:13;102002.22;;;27.09
77789;BMP280;70537;44.384;0.512;2023-06-26T10:29:40;102008.13;;;27.58
77789;BMP280;70537;44.384;0.512;2023-06-26T10:32:06;102001.81;;;27.57
77789;BMP280;70537;44.384;0.512;2023-06-26T10:34:34;101996.16;;;27.92
77789;BMP280;70537;44.384;0.512;2023-06-26T10:37:02;101991.81;;;28.08
77789;BMP280;70537;44.384;0.512;2023-06-26T10:39:53;101982.94;;;28.39
77789;BMP280;70537;44.384;0.512;2023-06-26T10:42:34;101996.44;;;28.23
77789;BMP280;70537;44.384;0.512;2023-06-26T10:45:09;101997.31;;;28.35
77789;BMP280;70537;44.384;0.512;2023-06-26T10:47:36;101991.75;;;28.35
77789;BMP280;70537;44.384;0.512;2023-06-26T10:50:25;101987.38;;;28.42
77789;BMP280;70537;44.384;0.512;2023-06-26T10:55:37;101985.94;;;28.70
77789;BMP280;70537;44.384;0.512;2023-06-26T11:01:14;101991.69;;;28.81
77789;BMP280;70537;44.384;0.512;2023-06-26T11:06:27;101975.44;;;29.38
77789;BMP280;70537;44.384;0.512;2023-06-26T11:08:55;101972.69;;;28.90
77789;BMP280;70537;44.384;0.512;2023-06-26T11:14:24;101983.56;;;28.00
77789;BMP280;70537;44.384;0.512;2023-06-26T11:16:51;101982.66;;;27.71
77789;BMP280;70537;44.384;0.512;2023-06-26T11:19:17;101992.19;;;27.95
77789;BMP280;70537;44.384;0.512;2023-06-26T11:21:43;101989.84;;;27.91
77789;BMP280;70537;44.384;0.512;2023-06-26T11:24:11;101993.22;;;28.36
77789;BMP280;70537;44.384;0.512;2023-06-26T11:26:41;101979.91;;;29.02
77789;BMP280;70537;44.384;0.512;2023-06-26T11:29:07;101970.94;;;28.75
77789;BMP280;70537;44.384;0.512;2023-06-26T11:31:37;101971.06;;;28.77
77789;BMP280;70537;44.384;0.512;2023-06-26T11:34:05;101979.63;;;29.18
77789;BMP280;70537;44.384;0.512;2023-06-26T11:36:31;101975.66;;;29.61
77789;BMP280;70537;44.384;0.512;2023-06-26T11:38:58;101968.19;;;29.54
77789;BMP280;70537;44.384;0.512;2023-06-26T11:41:26;101968.19;;;29.54
77789;BMP280;70537;44.384;0.512;2023-06-26T11:43:52;101964.81;;;29.46
77789;BMP280;70537;44.384;0.512;2023-06-26T11:46:19;101965.03;;;29.29
77789;BMP280;70537;44.384;0.512;2023-06-26T11:48:45;101971.16;;;29.47
77789;BMP280;70537;44.384;0.512;2023-06-26T11:51:13;101968.63;;;29.51
77789;BMP280;70537;44.384;0.512;2023-06-26T11:53:41;101966.75;;;29.44
77789;BMP280;70537;44.384;0.512;2023-06-26T11:56:11;101963.53;;;29.37
77789;BMP280;70537;44.384;0.512;2023-06-26T12:01:29;101966.66;;;29.73
77789;BMP280;70537;44.384;0.512;2023-06-26T12:03:59;101955.25;;;30.11
77789;BMP280;70537;44.384;0.512;2023-06-26T12:06:27;101961.53;;;30.43
77789;BMP280;70537;44.384;0.512;2023-06-26T12:08:54;101955.34;;;30.23
77789;BMP280;70537;44.384;0.512;2023-06-26T12:11:20;101953.00;;;30.19
77789;BMP280;70537;44.384;0.512;2023-06-26T12:13:47;101957.16;;;29.87
77789;BMP280;70537;44.384;0.512;2023-06-26T12:16:14;101951.72;;;30.11
77789;BMP280;70537;44.384;0.512;2023-06-26T12:18:40;101945.03;;;30.16
77789;BMP280;70537;44.384;0.512;2023-06-26T12:21:05;101948.38;;;30.03
77789;BMP280;70537;44.384;0.512;2023-06-26T12:23:39;101950.97;;;29.89
77789;BMP280;70537;44.384;0.512;2023-06-26T12:26:21;101942.94;;;29.95
77789;BMP280;70537;44.384;0.512;2023-06-26T12:28:46;101942.97;;;29.64
77789;BMP280;70537;44.384;0.512;2023-06-26T12:31:16;101947.59;;;29.50
77789;BMP280;70537;44.384;0.512;2023-06-26T12:33:45;101939.03;;;29.48
77789;BMP280;70537;44.384;0.512;2023-06-26T12:36:14;101941.88;;;29.38
77789;BMP280;70537;44.384;0.512;2023-06-26T12:38:41;101947.94;;;29.34
77789;BMP280;70537;44.384;0.512;2023-06-26T12:41:13;101945.31;;;28.98
77789;BMP280;70537;44.384;0.512;2023-06-26T12:43:42;101949.09;;;29.41
77789;BMP280;70537;44.384;0.512;2023-06-26T12:46:08;101943.09;;;29.06
77789;BMP280;70537;44.384;0.512;2023-06-26T12:48:38;101941.13;;;29.47
77789;BMP280;70537;44.384;0.512;2023-06-26T12:51:09;101946.44;;;29.43
77789;BMP280;70537;44.384;0.512;2023-06-26T12:53:35;101949.38;;;29.45
77789;BMP280;70537;44.384;0.512;2023-06-26T12:56:01;101946.19;;;29.29
77789;BMP280;70537;44.384;0.512;2023-06-26T12:58:26;101950.16;;;29.26
77789;BMP280;70537;44.384;0.512;2023-06-26T13:00:52;101953.22;;;29.30
77789;BMP280;70537;44.384;0.512;2023-06-26T13:03:19;101948.78;;;29.78
77789;BMP280;70537;44.384;0.512;2023-06-26T13:05:46;101938.31;;;30.09
77789;BMP280;70537;44.384;0.512;2023-06-26T13:08:12;101944.69;;;30.31
77789;BMP280;70537;44.384;0.512;2023-06-26T13:10:38;101940.66;;;30.34
77789;BMP280;70537;44.384;0.512;2023-06-26T13:13:05;101939.06;;;30.86
77789;BMP280;70537;44.384;0.512;2023-06-26T13:15:30;101939.00;;;30.74
77789;BMP280;70537;44.384;0.512;2023-06-26T13:17:56;101939.72;;;31.08
77789;BMP280;70537;44.384;0.512;2023-06-26T13:20:21;101931.34;;;31.43
77789;BMP280;70537;44.384;0.512;2023-06-26T13:22:47;101936.03;;;30.93
77789;BMP280;70537;44.384;0.512;2023-06-26T13:25:12;101926.00;;;31.47
77789;BMP280;70537;44.384;0.512;2023-06-26T13:27:38;101929.13;;;31.76
77789;BMP280;70537;44.384;0.512;2023-06-26T13:30:04;101919.84;;;31.27
77789;BMP280;70537;44.384;0.512;2023-06-26T13:32:30;101922.38;;;31.81
77789;BMP280;70537;44.384;0.512;2023-06-26T13:34:55;101921.22;;;31.49
77789;BMP280;70537;44.384;0.512;2023-06-26T13:37:21;101907.16;;;31.38
77789;BMP280;70537;44.384;0.512;2023-06-26T13:39:46;101911.94;;;31.35
77789;BMP280;70537;44.384;0.512;2023-06-26T13:42:16;101917.50;;;31.00
77789;BMP280;70537;44.384;0.512;2023-06-26T13:44:41;101907.53;;;31.20
77789;BMP280;70537;44.384;0.512;2023-06-26T13:47:07;101904.56;;;30.50
77789;BMP280;70537;44.384;0.512;2023-06-26T13:49:33;101909.00;;;30.32
77789;BMP280;70537;44.384;0.512;2023-06-26T13:51:58;101918.25;;;29.60
77789;BMP280;70537;44.384;0.512;2023-06-26T13:54:24;101908.47;;;29.30
77789;BMP280;70537;44.384;0.512;2023-06-26T13:56:49;101921.03;;;29.60
77789;BMP280;70537;44.384;0.512;2023-06-26T13:59:15;101916.53;;;30.29
77789;BMP280;70537;44.384;0.512;2023-06-26T14:01:40;101905.09;;;30.70
77789;BMP280;70537;44.384;0.512;2023-06-26T14:04:08;101909.25;;;31.14
77789;BMP280;70537;44.384;0.512;2023-06-26T14:06:33;101899.00;;;30.62
77789;BMP280;70537;44.384;0.512;2023-06-26T14:09:00;101910.94;;;31.07
77789;BMP280;70537;44.384;0.512;2023-06-26T14:11:26;101901.47;;;30.79
77789;BMP280;70537;44.384;0.512;2023-06-26T14:13:51;101899.72;;;30.29
77789;BMP280;70537;44.384;0.512;2023-06-26T14:16:17;101905.88;;;29.54